sensor_id;sensor_type;location;lat;lon;timestamp;P1;durP1;ratioP1;P2;durP2;ratioP2
52284;SDS011;38238;53.304;6.606;2022-11-25T00:01:22;11.00;;;6.30;;
52284;SDS011;38238;53.304;6.606;2022-11-25T00:03:49;11.48;;;6.13;;
52284;SDS011;38238;53.304;6.606;2022-11-25T00:06:17;11.70;;;8.65;;
52284;SDS011;38238;53.304;6.606;2022-11-25T00:08:46;11.52;;;9.68;;
52284;SDS011;38238;53.304;6.606;2022-11-25T00:11:13;16.98;;;10.27;;
52284;SDS011;38238;53.304;6.606;2022-11-25T00:13:40;14.93;;;10.52;;
52284;SDS011;38238;53.304;6.606;2022-11-25T00:16:07;10.82;;;8.05;;
52284;SDS011;38238;53.304;6.606;2022-11-25T00:18:35;14.10;;;8.27;;
52284;SDS011;38238;53.304;6.606;2022-11-25T00:21:08;18.50;;;7.50;;
52284;SDS011;38238;53.304;6.606;2022-11-25T00:23:35;14.35;;;9.63;;
52284;SDS011;38238;53.304;6.606;2022-11-25T00:26:09;14.45;;;11.65;;
52284;SDS011;38238;53.304;6.606;2022-11-25T00:28:35;15.45;;;8.85;;
52284;SDS011;38238;53.304;6.606;2022-11-25T00:31:05;14.52;;;8.13;;
52284;SDS011;38238;53.304;6.606;2022-11-25T00:33:34;12.18;;;10.05;;
52284;SDS011;38238;53.304;6.606;2022-11-25T00:36:00;12.35;;;6.20;;
52284;SDS011;38238;53.304;6.606;2022-11-25T00:38:27;14.60;;;9.48;;
52284;SDS011;38238;53.304;6.606;2022-11-25T00:40:53;15.25;;;7.57;;
52284;SDS011;38238;53.304;6.606;2022-11-25T00:43:37;18.75;;;8.18;;
52284;SDS011;38238;53.304;6.606;2022-11-25T00:46:21;16.95;;;7.72;;
52284;SDS011;38238;53.304;6.606;2022-11-25T00:48:46;14.45;;;6.80;;
52284;SDS011;38238;53.304;6.606;2022-11-25T00:51:12;12.63;;;10.50;;
52284;SDS011;38238;53.304;6.606;2022-11-25T00:53:38;10.98;;;7.80;;
52284;SDS011;38238;53.304;6.606;2022-11-25T00:56:03;10.25;;;6.28;;
52284;SDS011;38238;53.304;6.606;2022-11-25T00:58:39;18.33;;;9.15;;
52284;SDS011;38238;53.304;6.606;2022-11-25T01:01:08;12.55;;;11.27;;
52284;SDS011;38238;53.304;6.606;2022-11-25T01:03:34;10.73;;;6.93;;
52284;SDS011;38238;53.304;6.606;2022-11-25T01:06:04;12.65;;;6.28;;
52284;SDS011;38238;53.304;6.606;2022-11-25T01:08:34;18.20;;;8.63;;
52284;SDS011;38238;53.304;6.606;2022-11-25T01:11:03;15.55;;;7.32;;
52284;SDS011;38238;53.304;6.606;2022-11-25T01:13:34;13.38;;;6.63;;
52284;SDS011;38238;53.304;6.606;2022-11-25T01:16:01;12.30;;;8.63;;
52284;SDS011;38238;53.304;6.606;2022-11-25T01:18:30;13.77;;;6.90;;
52284;SDS011;38238;53.304;6.606;2022-11-25T01:23:36;9.98;;;7.03;;
52284;SDS011;38238;53.304;6.606;2022-11-25T01:26:03;15.77;;;7.25;;
52284;SDS011;38238;53.304;6.606;2022-11-25T01:28:30;15.40;;;10.48;;
52284;SDS011;38238;53.304;6.606;2022-11-25T01:33:25;12.23;;;6.32;;
52284;SDS011;38238;53.304;6.606;2022-11-25T01:35:50;9.43;;;6.45;;
52284;SDS011;38238;53.304;6.606;2022-11-25T01:38:16;13.50;;;6.82;;
52284;SDS011;38238;53.304;6.606;2022-11-25T01:40:42;13.00;;;9.60;;
52284;SDS011;38238;53.304;6.606;2022-11-25T01:43:13;17.20;;;8.60;;
52284;SDS011;38238;53.304;6.606;2022-11-25T01:45:39;11.93;;;6.45;;
52284;SDS011;38238;53.304;6.606;2022-11-25T01:48:09;11.50;;;8.65;;
52284;SDS011;38238;53.304;6.606;2022-11-25T01:50:48;13.98;;;6.65;;
52284;SDS011;38238;53.304;6.606;2022-11-25T01:53:15;13.05;;;9.68;;
52284;SDS011;38238;53.304;6.606;2022-11-25T01:55:43;17.60;;;8.38;;
52284;SDS011;38238;53.304;6.606;2022-11-25T01:58:25;12.52;;;8.32;;
52284;SDS011;38238;53.304;6.606;2022-11-25T02:00:55;14.00;;;9.23;;
52284;SDS011;38238;53.304;6.606;2022-11-25T02:03:21;17.13;;;8.80;;
52284;SDS011;38238;53.304;6.606;2022-11-25T02:08:34;14.15;;;9.30;;
52284;SDS011;38238;53.304;6.606;2022-11-25T02:11:00;12.40;;;7.18;;
52284;SDS011;38238;53.304;6.606;2022-11-25T02:13:28;15.27;;;6.82;;
52284;SDS011;38238;53.304;6.606;2022-11-25T02:15:56;12.40;;;6.30;;
52284;SDS011;38238;53.304;6.606;2022-11-25T02:18:21;14.65;;;6.03;;
52284;SDS011;38238;53.304;6.606;2022-11-25T02:20:47;14.50;;;9.68;;
52284;SDS011;38238;53.304;6.606;2022-11-25T02:25:50;14.98;;;9.50;;
52284;SDS011;38238;53.304;6.606;2022-11-25T02:28:18;17.33;;;8.35;;
52284;SDS011;38238;53.304;6.606;2022-11-25T02:30:48;14.82;;;6.63;;
52284;SDS011;38238;53.304;6.606;2022-11-25T02:33:15;16.63;;;7.95;;
52284;SDS011;38238;53.304;6.606;2022-11-25T02:35:42;12.05;;;8.93;;
52284;SDS011;38238;53.304;6.606;2022-11-25T02:40:46;12.35;;;7.97;;
52284;SDS011;38238;53.304;6.606;2022-11-25T02:43:15;17.45;;;5.85;;
52284;SDS011;38238;53.304;6.606;2022-11-25T02:45:43;19.75;;;6.72;;
52284;SDS011;38238;53.304;6.606;2022-11-25T02:48:11;11.95;;;6.38;;
52284;SDS011;38238;53.304;6.606;2022-11-25T02:50:37;10.88;;;5.78;;
52284;SDS011;38238;53.304;6.606;2022-11-25T02:53:03;11.25;;;5.85;;
52284;SDS011;38238;53.304;6.606;2022-11-25T02:55:29;11.07;;;5.65;;
52284;SDS011;38238;53.304;6.606;2022-11-25T02:57:55;11.38;;;5.55;;
52284;SDS011;38238;53.304;6.606;2022-11-25T03:00:20;16.88;;;6.35;;
52284;SDS011;38238;53.304;6.606;2022-11-25T03:02:46;14.05;;;7.80;;
52284;SDS011;38238;53.304;6.606;2022-11-25T03:05:12;17.40;;;6.10;;
52284;SDS011;38238;53.304;6.606;2022-11-25T03:07:38;15.43;;;6.13;;
52284;SDS011;38238;53.304;6.606;2022-11-25T03:10:04;16.38;;;7.78;;
52284;SDS011;38238;53.304;6.606;2022-11-25T03:12:30;13.40;;;7.75;;
52284;SDS011;38238;53.304;6.606;2022-11-25T03:14:56;11.82;;;7.10;;
52284;SDS011;38238;53.304;6.606;2022-11-25T03:17:22;18.33;;;6.05;;
52284;SDS011;38238;53.304;6.606;2022-11-25T03:19:48;14.30;;;6.70;;
52284;SDS011;38238;53.304;6.606;2022-11-25T03:22:13;13.95;;;9.00;;
52284;SDS011;38238;53.304;6.606;2022-11-25T03:24:39;11.45;;;5.53;;
52284;SDS011;38238;53.304;6.606;2022-11-25T03:27:05;17.05;;;7.05;;
52284;SDS011;38238;53.304;6.606;2022-11-25T03:29:30;12.05;;;5.95;;
52284;SDS011;38238;53.304;6.606;2022-11-25T03:31:56;13.25;;;7.88;;
52284;SDS011;38238;53.304;6.606;2022-11-25T03:34:22;12.40;;;6.72;;
52284;SDS011;38238;53.304;6.606;2022-11-25T03:36:47;11.73;;;7.88;;
52284;SDS011;38238;53.304;6.606;2022-11-25T03:39:13;11.95;;;6.97;;
52284;SDS011;38238;53.304;6.606;2022-11-25T03:41:39;17.08;;;9.90;;
52284;SDS011;38238;53.304;6.606;2022-11-25T03:44:04;20.75;;;10.38;;
52284;SDS011;38238;53.304;6.606;2022-11-25T03:46:30;11.23;;;6.28;;
52284;SDS011;38238;53.304;6.606;2022-11-25T03:48:56;17.20;;;8.65;;
52284;SDS011;38238;53.304;6.606;2022-11-25T03:51:22;13.75;;;8.05;;
52284;SDS011;38238;53.304;6.606;2022-11-25T03:53:48;16.48;;;9.43;;
52284;SDS011;38238;53.304;6.606;2022-11-25T03:56:13;13.05;;;6.03;;
52284;SDS011;38238;53.304;6.606;2022-11-25T03:58:39;15.88;;;7.13;;
52284;SDS011;38238;53.304;6.606;2022-11-25T04:01:05;16.63;;;7.85;;
52284;SDS011;38238;53.304;6.606;2022-11-25T04:03:30;17.88;;;6.47;;
52284;SDS011;38238;53.304;6.606;2022-11-25T04:05:56;16.65;;;6.72;;
52284;SDS011;38238;53.304;6.606;2022-11-25T04:08:22;18.15;;;6.53;;
52284;SDS011;38238;53.304;6.606;2022-11-25T04:10:48;13.60;;;7.03;;
52284;SDS011;38238;53.304;6.606;2022-11-25T04:13:14;12.00;;;5.70;;
52284;SDS011;38238;53.304;6.606;2022-11-25T04:15:44;14.40;;;8.88;;
52284;SDS011;38238;53.304;6.606;2022-11-25T04:18:14;12.85;;;6.90;;
52284;SDS011;38238;53.304;6.606;2022-11-25T04:20:40;13.63;;;8.73;;
52284;SDS011;38238;53.304;6.606;2022-11-25T04:23:06;14.55;;;8.68;;
52284;SDS011;38238;53.304;6.606;2022-11-25T04:25:33;20.58;;;8.70;;
52284;SDS011;38238;53.304;6.606;2022-11-25T04:28:00;16.02;;;7.22;;
52284;SDS011;38238;53.304;6.606;2022-11-25T04:30:26;15.63;;;8.00;;
52284;SDS011;38238;53.304;6.606;2022-11-25T04:32:52;19.38;;;8.18;;
52284;SDS011;38238;53.304;6.606;2022-11-25T04:35:17;20.65;;;9.10;;
52284;SDS011;38238;53.304;6.606;2022-11-25T04:37:43;13.15;;;8.45;;
52284;SDS011;38238;53.304;6.606;2022-11-25T04:40:09;14.50;;;10.07;;
52284;SDS011;38238;53.304;6.606;2022-11-25T04:42:35;17.00;;;8.68;;
52284;SDS011;38238;53.304;6.606;2022-11-25T04:45:10;17.00;;;9.07;;
52284;SDS011;38238;53.304;6.606;2022-11-25T04:47:39;14.27;;;8.82;;
52284;SDS011;38238;53.304;6.606;2022-11-25T04:50:06;16.00;;;10.48;;
52284;SDS011;38238;53.304;6.606;2022-11-25T04:52:34;15.82;;;7.78;;
52284;SDS011;38238;53.304;6.606;2022-11-25T04:54:59;17.20;;;9.13;;
52284;SDS011;38238;53.304;6.606;2022-11-25T04:57:25;16.02;;;9.27;;
52284;SDS011;38238;53.304;6.606;2022-11-25T04:59:51;11.73;;;7.85;;
52284;SDS011;38238;53.304;6.606;2022-11-25T05:02:18;18.08;;;9.57;;
52284;SDS011;38238;53.304;6.606;2022-11-25T05:04:46;12.82;;;10.10;;
52284;SDS011;38238;53.304;6.606;2022-11-25T05:07:13;19.58;;;10.93;;
52284;SDS011;38238;53.304;6.606;2022-11-25T05:09:40;13.30;;;8.95;;
52284;SDS011;38238;53.304;6.606;2022-11-25T05:12:06;20.05;;;8.57;;
52284;SDS011;38238;53.304;6.606;2022-11-25T05:14:34;13.98;;;9.52;;
52284;SDS011;38238;53.304;6.606;2022-11-25T05:17:01;19.75;;;9.30;;
52284;SDS011;38238;53.304;6.606;2022-11-25T05:19:28;15.85;;;8.43;;
52284;SDS011;38238;53.304;6.606;2022-11-25T05:21:54;19.98;;;9.10;;
52284;SDS011;38238;53.304;6.606;2022-11-25T05:24:20;12.63;;;8.43;;
52284;SDS011;38238;53.304;6.606;2022-11-25T05:26:45;18.48;;;10.25;;
52284;SDS011;38238;53.304;6.606;2022-11-25T05:29:11;15.85;;;8.40;;
52284;SDS011;38238;53.304;6.606;2022-11-25T05:31:37;17.48;;;11.57;;
52284;SDS011;38238;53.304;6.606;2022-11-25T05:34:03;15.40;;;8.70;;
52284;SDS011;38238;53.304;6.606;2022-11-25T05:36:28;15.85;;;10.57;;
52284;SDS011;38238;53.304;6.606;2022-11-25T05:38:55;15.45;;;10.55;;
52284;SDS011;38238;53.304;6.606;2022-11-25T05:41:21;14.23;;;10.45;;
52284;SDS011;38238;53.304;6.606;2022-11-25T05:43:47;20.45;;;10.40;;
52284;SDS011;38238;53.304;6.606;2022-11-25T05:46:17;21.02;;;10.73;;
52284;SDS011;38238;53.304;6.606;2022-11-25T05:48:44;19.70;;;12.40;;
52284;SDS011;38238;53.304;6.606;2022-11-25T05:51:10;16.40;;;11.32;;
52284;SDS011;38238;53.304;6.606;2022-11-25T05:53:36;13.82;;;10.80;;
52284;SDS011;38238;53.304;6.606;2022-11-25T05:56:03;17.08;;;9.73;;
52284;SDS011;38238;53.304;6.606;2022-11-25T05:58:30;16.42;;;12.00;;
52284;SDS011;38238;53.304;6.606;2022-11-25T06:00:57;17.35;;;9.88;;
52284;SDS011;38238;53.304;6.606;2022-11-25T06:03:26;18.27;;;10.60;;
52284;SDS011;38238;53.304;6.606;2022-11-25T06:05:56;14.32;;;8.90;;
52284;SDS011;38238;53.304;6.606;2022-11-25T06:08:22;15.85;;;9.18;;
52284;SDS011;38238;53.304;6.606;2022-11-25T06:10:48;18.55;;;11.10;;
52284;SDS011;38238;53.304;6.606;2022-11-25T06:13:14;11.77;;;8.32;;
52284;SDS011;38238;53.304;6.606;2022-11-25T06:15:40;18.10;;;11.65;;
52284;SDS011;38238;53.304;6.606;2022-11-25T06:18:07;13.57;;;10.52;;
52284;SDS011;38238;53.304;6.606;2022-11-25T06:20:33;23.13;;;12.32;;
52284;SDS011;38238;53.304;6.606;2022-11-25T06:22:59;21.98;;;13.80;;
52284;SDS011;38238;53.304;6.606;2022-11-25T06:25:25;16.23;;;11.00;;
52284;SDS011;38238;53.304;6.606;2022-11-25T06:27:51;18.45;;;10.27;;
52284;SDS011;38238;53.304;6.606;2022-11-25T06:30:17;18.98;;;9.45;;
52284;SDS011;38238;53.304;6.606;2022-11-25T06:32:43;12.57;;;8.45;;
52284;SDS011;38238;53.304;6.606;2022-11-25T06:35:08;13.75;;;11.68;;
52284;SDS011;38238;53.304;6.606;2022-11-25T06:37:35;18.40;;;10.95;;
52284;SDS011;38238;53.304;6.606;2022-11-25T06:40:01;18.08;;;10.77;;
52284;SDS011;38238;53.304;6.606;2022-11-25T06:42:28;14.43;;;9.73;;
52284;SDS011;38238;53.304;6.606;2022-11-25T06:44:53;22.67;;;10.85;;
52284;SDS011;38238;53.304;6.606;2022-11-25T06:47:19;16.25;;;10.77;;
52284;SDS011;38238;53.304;6.606;2022-11-25T06:49:46;14.90;;;10.52;;
52284;SDS011;38238;53.304;6.606;2022-11-25T06:52:12;15.95;;;11.65;;
52284;SDS011;38238;53.304;6.606;2022-11-25T06:54:37;20.02;;;10.48;;
52284;SDS011;38238;53.304;6.606;2022-11-25T06:57:08;17.90;;;8.90;;
52284;SDS011;38238;53.304;6.606;2022-11-25T06:59:35;11.93;;;8.43;;
52284;SDS011;38238;53.304;6.606;2022-11-25T07:02:01;15.93;;;10.68;;
52284;SDS011;38238;53.304;6.606;2022-11-25T07:04:26;14.20;;;9.13;;
52284;SDS011;38238;53.304;6.606;2022-11-25T07:06:52;18.13;;;11.38;;
52284;SDS011;38238;53.304;6.606;2022-11-25T07:09:18;15.90;;;8.95;;
52284;SDS011;38238;53.304;6.606;2022-11-25T07:11:44;23.02;;;10.77;;
52284;SDS011;38238;53.304;6.606;2022-11-25T07:14:11;13.40;;;8.50;;
52284;SDS011;38238;53.304;6.606;2022-11-25T07:16:39;20.45;;;10.27;;
52284;SDS011;38238;53.304;6.606;2022-11-25T07:19:06;14.43;;;8.77;;
52284;SDS011;38238;53.304;6.606;2022-11-25T07:21:33;13.70;;;9.45;;
52284;SDS011;38238;53.304;6.606;2022-11-25T07:24:01;15.75;;;8.57;;
52284;SDS011;38238;53.304;6.606;2022-11-25T07:26:30;13.75;;;8.23;;
52284;SDS011;38238;53.304;6.606;2022-11-25T07:28:58;13.70;;;9.60;;
52284;SDS011;38238;53.304;6.606;2022-11-25T07:31:30;17.25;;;8.93;;
52284;SDS011;38238;53.304;6.606;2022-11-25T07:34:01;11.65;;;8.32;;
52284;SDS011;38238;53.304;6.606;2022-11-25T07:36:27;12.40;;;8.77;;
52284;SDS011;38238;53.304;6.606;2022-11-25T07:38:54;12.30;;;9.07;;
52284;SDS011;38238;53.304;6.606;2022-11-25T07:41:23;15.55;;;8.18;;
52284;SDS011;38238;53.304;6.606;2022-11-25T07:43:51;13.40;;;10.68;;
52284;SDS011;38238;53.304;6.606;2022-11-25T07:46:31;14.05;;;10.57;;
52284;SDS011;38238;53.304;6.606;2022-11-25T07:49:00;16.05;;;11.70;;
52284;SDS011;38238;53.304;6.606;2022-11-25T07:51:30;14.15;;;11.10;;
52284;SDS011;38238;53.304;6.606;2022-11-25T07:53:59;14.27;;;8.93;;
52284;SDS011;38238;53.304;6.606;2022-11-25T07:56:26;17.77;;;9.27;;
52284;SDS011;38238;53.304;6.606;2022-11-25T07:58:55;15.10;;;8.82;;
52284;SDS011;38238;53.304;6.606;2022-11-25T08:01:21;13.68;;;7.85;;
52284;SDS011;38238;53.304;6.606;2022-11-25T08:03:48;16.35;;;8.73;;
52284;SDS011;38238;53.304;6.606;2022-11-25T08:06:15;11.50;;;7.88;;
52284;SDS011;38238;53.304;6.606;2022-11-25T08:08:49;12.55;;;8.05;;
52284;SDS011;38238;53.304;6.606;2022-11-25T08:11:19;10.48;;;6.53;;
52284;SDS011;38238;53.304;6.606;2022-11-25T08:13:47;13.75;;;7.97;;
52284;SDS011;38238;53.304;6.606;2022-11-25T08:16:14;11.75;;;8.40;;
52284;SDS011;38238;53.304;6.606;2022-11-25T08:18:41;11.98;;;7.82;;
52284;SDS011;38238;53.304;6.606;2022-11-25T08:21:07;13.07;;;7.32;;
52284;SDS011;38238;53.304;6.606;2022-11-25T08:23:35;11.52;;;7.47;;
52284;SDS011;38238;53.304;6.606;2022-11-25T08:26:09;9.65;;;7.18;;
52284;SDS011;38238;53.304;6.606;2022-11-25T08:28:37;9.45;;;7.63;;
52284;SDS011;38238;53.304;6.606;2022-11-25T08:31:10;9.38;;;8.07;;
52284;SDS011;38238;53.304;6.606;2022-11-25T08:33:39;11.07;;;8.45;;
52284;SDS011;38238;53.304;6.606;2022-11-25T08:36:06;10.23;;;6.50;;
52284;SDS011;38238;53.304;6.606;2022-11-25T08:38:32;7.53;;;5.60;;
52284;SDS011;38238;53.304;6.606;2022-11-25T08:40:59;7.22;;;5.55;;
52284;SDS011;38238;53.304;6.606;2022-11-25T08:43:25;13.13;;;8.63;;
52284;SDS011;38238;53.304;6.606;2022-11-25T08:45:51;10.27;;;6.18;;
52284;SDS011;38238;53.304;6.606;2022-11-25T08:48:17;9.75;;;6.60;;
52284;SDS011;38238;53.304;6.606;2022-11-25T08:50:45;10.23;;;6.50;;
52284;SDS011;38238;53.304;6.606;2022-11-25T08:53:13;10.18;;;6.63;;
52284;SDS011;38238;53.304;6.606;2022-11-25T08:55:39;11.50;;;6.47;;
52284;SDS011;38238;53.304;6.606;2022-11-25T08:58:05;7.10;;;5.60;;
52284;SDS011;38238;53.304;6.606;2022-11-25T09:00:35;12.38;;;8.85;;
52284;SDS011;38238;53.304;6.606;2022-11-25T09:03:01;9.60;;;6.88;;
52284;SDS011;38238;53.304;6.606;2022-11-25T09:05:27;8.27;;;5.85;;
52284;SDS011;38238;53.304;6.606;2022-11-25T09:07:53;10.88;;;6.53;;
52284;SDS011;38238;53.304;6.606;2022-11-25T09:10:19;13.13;;;6.75;;
52284;SDS011;38238;53.304;6.606;2022-11-25T09:12:44;11.98;;;8.63;;
52284;SDS011;38238;53.304;6.606;2022-11-25T09:15:10;12.15;;;7.03;;
52284;SDS011;38238;53.304;6.606;2022-11-25T09:17:36;11.27;;;7.97;;
52284;SDS011;38238;53.304;6.606;2022-11-25T09:20:03;12.02;;;6.50;;
52284;SDS011;38238;53.304;6.606;2022-11-25T09:22:29;8.43;;;6.22;;
52284;SDS011;38238;53.304;6.606;2022-11-25T09:24:56;9.95;;;6.30;;
52284;SDS011;38238;53.304;6.606;2022-11-25T09:27:21;9.32;;;6.10;;
52284;SDS011;38238;53.304;6.606;2022-11-25T09:29:47;11.80;;;6.47;;
52284;SDS011;38238;53.304;6.606;2022-11-25T09:32:13;9.00;;;5.63;;
52284;SDS011;38238;53.304;6.606;2022-11-25T09:34:41;10.35;;;6.15;;
52284;SDS011;38238;53.304;6.606;2022-11-25T09:37:07;9.85;;;7.78;;
52284;SDS011;38238;53.304;6.606;2022-11-25T09:39:32;7.82;;;5.43;;
52284;SDS011;38238;53.304;6.606;2022-11-25T09:42:03;11.48;;;5.72;;
52284;SDS011;38238;53.304;6.606;2022-11-25T09:53:44;10.68;;;5.97;;
52284;SDS011;38238;53.304;6.606;2022-11-25T09:56:18;10.10;;;7.13;;
52284;SDS011;38238;53.304;6.606;2022-11-25T09:59:01;14.20;;;6.50;;
52284;SDS011;38238;53.304;6.606;2022-11-25T10:01:46;10.63;;;8.02;;
52284;SDS011;38238;53.304;6.606;2022-11-25T10:04:34;7.28;;;4.78;;
52284;SDS011;38238;53.304;6.606;2022-11-25T10:07:20;11.52;;;4.38;;
52284;SDS011;38238;53.304;6.606;2022-11-25T10:09:54;9.07;;;5.03;;
52284;SDS011;38238;53.304;6.606;2022-11-25T10:12:27;10.75;;;4.50;;
52284;SDS011;38238;53.304;6.606;2022-11-25T10:15:03;9.13;;;3.95;;
52284;SDS011;38238;53.304;6.606;2022-11-25T10:18:18;8.85;;;3.80;;
52284;SDS011;38238;53.304;6.606;2022-11-25T10:20:29;8.82;;;4.30;;
52284;SDS011;38238;53.304;6.606;2022-11-25T10:25:28;11.63;;;3.90;;
52284;SDS011;38238;53.304;6.606;2022-11-25T10:28:19;7.13;;;3.72;;
52284;SDS011;38238;53.304;6.606;2022-11-25T10:33:55;10.38;;;3.90;;
52284;SDS011;38238;53.304;6.606;2022-11-25T10:36:31;6.63;;;3.65;;
52284;SDS011;38238;53.304;6.606;2022-11-25T10:38:59;7.35;;;3.80;;
52284;SDS011;38238;53.304;6.606;2022-11-25T10:41:27;7.22;;;3.95;;
52284;SDS011;38238;53.304;6.606;2022-11-25T10:44:47;13.50;;;4.07;;
52284;SDS011;38238;53.304;6.606;2022-11-25T10:52:36;8.80;;;4.00;;
52284;SDS011;38238;53.304;6.606;2022-11-25T10:57:41;10.38;;;4.88;;
52284;SDS011;38238;53.304;6.606;2022-11-25T11:00:22;12.35;;;3.95;;
52284;SDS011;38238;53.304;6.606;2022-11-25T11:02:59;9.93;;;4.07;;
52284;SDS011;38238;53.304;6.606;2022-11-25T11:05:42;9.23;;;4.55;;
52284;SDS011;38238;53.304;6.606;2022-11-25T11:10:46;7.97;;;4.10;;
52284;SDS011;38238;53.304;6.606;2022-11-25T11:13:25;10.77;;;4.65;;
52284;SDS011;38238;53.304;6.606;2022-11-25T11:15:57;11.77;;;4.10;;
52284;SDS011;38238;53.304;6.606;2022-11-25T11:18:24;8.52;;;3.88;;
52284;SDS011;38238;53.304;6.606;2022-11-25T11:20:51;7.90;;;4.10;;
52284;SDS011;38238;53.304;6.606;2022-11-25T11:23:19;9.68;;;3.95;;
52284;SDS011;38238;53.304;6.606;2022-11-25T11:26:04;9.02;;;4.00;;
52284;SDS011;38238;53.304;6.606;2022-11-25T11:31:01;8.82;;;4.32;;
52284;SDS011;38238;53.304;6.606;2022-11-25T11:42:03;8.55;;;3.72;;
52284;SDS011;38238;53.304;6.606;2022-11-25T11:53:50;10.98;;;4.03;;
52284;SDS011;38238;53.304;6.606;2022-11-25T11:56:35;8.63;;;3.90;;
52284;SDS011;38238;53.304;6.606;2022-11-25T12:01:39;8.95;;;3.65;;
52284;SDS011;38238;53.304;6.606;2022-11-25T12:07:25;12.30;;;3.78;;
52284;SDS011;38238;53.304;6.606;2022-11-25T12:10:42;9.98;;;3.85;;
52284;SDS011;38238;53.304;6.606;2022-11-25T12:15:50;9.85;;;3.60;;
52284;SDS011;38238;53.304;6.606;2022-11-25T12:26:59;8.88;;;3.60;;
52284;SDS011;38238;53.304;6.606;2022-11-25T12:29:36;15.15;;;4.03;;
52284;SDS011;38238;53.304;6.606;2022-11-25T12:35:50;8.32;;;3.80;;
52284;SDS011;38238;53.304;6.606;2022-11-25T12:38:04;11.32;;;3.78;;
52284;SDS011;38238;53.304;6.606;2022-11-25T12:41:13;11.60;;;4.20;;
52284;SDS011;38238;53.304;6.606;2022-11-25T12:43:53;14.80;;;4.10;;
52284;SDS011;38238;53.304;6.606;2022-11-25T13:16:58;16.45;;;4.07;;
52284;SDS011;38238;53.304;6.606;2022-11-25T13:19:24;11.23;;;3.30;;
52284;SDS011;38238;53.304;6.606;2022-11-25T13:24:33;13.73;;;4.55;;
52284;SDS011;38238;53.304;6.606;2022-11-25T13:27:03;16.42;;;5.38;;
52284;SDS011;38238;53.304;6.606;2022-11-25T13:31:57;15.02;;;5.75;;
52284;SDS011;38238;53.304;6.606;2022-11-25T13:36:54;15.82;;;4.40;;
52284;SDS011;38238;53.304;6.606;2022-11-25T13:39:28;13.02;;;5.18;;
52284;SDS011;38238;53.304;6.606;2022-11-25T13:44:54;15.18;;;5.22;;
52284;SDS011;38238;53.304;6.606;2022-11-25T13:49:53;11.48;;;4.32;;
52284;SDS011;38238;53.304;6.606;2022-11-25T13:52:29;11.52;;;4.32;;
52284;SDS011;38238;53.304;6.606;2022-11-25T13:54:59;12.05;;;3.80;;
52284;SDS011;38238;53.304;6.606;2022-11-25T13:57:31;9.95;;;4.07;;
52284;SDS011;38238;53.304;6.606;2022-11-25T14:00:04;17.55;;;4.18;;
52284;SDS011;38238;53.304;6.606;2022-11-25T14:02:35;13.15;;;3.90;;
52284;SDS011;38238;53.304;6.606;2022-11-25T14:24:49;11.32;;;3.80;;
52284;SDS011;38238;53.304;6.606;2022-11-25T14:27:24;12.77;;;4.30;;
52284;SDS011;38238;53.304;6.606;2022-11-25T14:29:59;10.80;;;4.17;;
52284;SDS011;38238;53.304;6.606;2022-11-25T14:35:02;12.73;;;5.00;;
52284;SDS011;38238;53.304;6.606;2022-11-25T14:37:43;9.90;;;4.32;;
52284;SDS011;38238;53.304;6.606;2022-11-25T14:40:20;11.45;;;4.65;;
52284;SDS011;38238;53.304;6.606;2022-11-25T14:42:59;11.70;;;4.25;;
52284;SDS011;38238;53.304;6.606;2022-11-25T14:45:30;11.63;;;4.82;;
52284;SDS011;38238;53.304;6.606;2022-11-25T14:47:58;13.48;;;3.97;;
52284;SDS011;38238;53.304;6.606;2022-11-25T14:50:37;13.50;;;4.82;;
52284;SDS011;38238;53.304;6.606;2022-11-25T14:53:07;9.05;;;4.05;;
52284;SDS011;38238;53.304;6.606;2022-11-25T14:55:35;10.98;;;5.82;;
52284;SDS011;38238;53.304;6.606;2022-11-25T14:58:01;12.80;;;5.38;;
52284;SDS011;38238;53.304;6.606;2022-11-25T15:00:27;12.02;;;5.22;;
52284;SDS011;38238;53.304;6.606;2022-11-25T15:03:00;10.23;;;4.88;;
52284;SDS011;38238;53.304;6.606;2022-11-25T15:05:32;12.38;;;3.97;;
52284;SDS011;38238;53.304;6.606;2022-11-25T15:13:40;10.43;;;5.15;;
52284;SDS011;38238;53.304;6.606;2022-11-25T15:18:46;11.55;;;4.05;;
52284;SDS011;38238;53.304;6.606;2022-11-25T15:21:13;8.77;;;4.15;;
52284;SDS011;38238;53.304;6.606;2022-11-25T15:23:41;10.68;;;6.35;;
52284;SDS011;38238;53.304;6.606;2022-11-25T15:26:15;13.18;;;5.30;;
52284;SDS011;38238;53.304;6.606;2022-11-25T15:28:46;16.35;;;5.78;;
52284;SDS011;38238;53.304;6.606;2022-11-25T15:31:18;9.93;;;5.57;;
52284;SDS011;38238;53.304;6.606;2022-11-25T15:33:45;9.55;;;4.85;;
52284;SDS011;38238;53.304;6.606;2022-11-25T15:36:24;15.70;;;5.40;;
52284;SDS011;38238;53.304;6.606;2022-11-25T15:38:50;10.35;;;4.70;;
52284;SDS011;38238;53.304;6.606;2022-11-25T15:43:46;15.77;;;5.82;;
52284;SDS011;38238;53.304;6.606;2022-11-25T15:46:14;11.88;;;5.18;;
52284;SDS011;38238;53.304;6.606;2022-11-25T15:48:48;12.90;;;5.80;;
52284;SDS011;38238;53.304;6.606;2022-11-25T16:13:03;16.95;;;8.07;;
52284;SDS011;38238;53.304;6.606;2022-11-25T16:21:49;10.07;;;6.57;;
52284;SDS011;38238;53.304;6.606;2022-11-25T16:27:18;14.02;;;8.13;;
52284;SDS011;38238;53.304;6.606;2022-11-25T16:29:50;12.38;;;6.13;;
52284;SDS011;38238;53.304;6.606;2022-11-25T16:32:24;12.30;;;6.80;;
52284;SDS011;38238;53.304;6.606;2022-11-25T16:34:53;16.60;;;9.47;;
52284;SDS011;38238;53.304;6.606;2022-11-25T16:37:21;14.02;;;9.10;;
52284;SDS011;38238;53.304;6.606;2022-11-25T16:39:47;13.70;;;10.35;;
52284;SDS011;38238;53.304;6.606;2022-11-25T16:42:19;20.08;;;8.02;;
52284;SDS011;38238;53.304;6.606;2022-11-25T16:44:47;10.10;;;8.25;;
52284;SDS011;38238;53.304;6.606;2022-11-25T16:47:14;13.07;;;10.05;;
52284;SDS011;38238;53.304;6.606;2022-11-25T16:49:41;22.92;;;17.10;;
52284;SDS011;38238;53.304;6.606;2022-11-25T16:52:06;25.92;;;20.05;;
52284;SDS011;38238;53.304;6.606;2022-11-25T16:54:32;20.48;;;18.35;;
52284;SDS011;38238;53.304;6.606;2022-11-25T16:56:58;15.70;;;11.73;;
52284;SDS011;38238;53.304;6.606;2022-11-25T17:01:57;15.20;;;7.70;;
52284;SDS011;38238;53.304;6.606;2022-11-25T17:04:24;14.98;;;10.55;;
52284;SDS011;38238;53.304;6.606;2022-11-25T17:06:50;19.45;;;11.65;;
52284;SDS011;38238;53.304;6.606;2022-11-25T17:09:16;28.73;;;22.50;;
52284;SDS011;38238;53.304;6.606;2022-11-25T17:11:42;14.38;;;11.15;;
52284;SDS011;38238;53.304;6.606;2022-11-25T17:14:22;16.67;;;8.63;;
52284;SDS011;38238;53.304;6.606;2022-11-25T17:16:51;18.73;;;7.85;;
52284;SDS011;38238;53.304;6.606;2022-11-25T17:19:17;12.55;;;9.25;;
52284;SDS011;38238;53.304;6.606;2022-11-25T17:21:43;15.18;;;9.35;;
52284;SDS011;38238;53.304;6.606;2022-11-25T17:24:27;13.60;;;8.27;;
52284;SDS011;38238;53.304;6.606;2022-11-25T17:26:54;15.05;;;8.05;;
52284;SDS011;38238;53.304;6.606;2022-11-25T17:29:26;15.07;;;8.27;;
52284;SDS011;38238;53.304;6.606;2022-11-25T17:31:58;16.02;;;8.82;;
52284;SDS011;38238;53.304;6.606;2022-11-25T17:34:26;14.98;;;8.07;;
52284;SDS011;38238;53.304;6.606;2022-11-25T17:36:52;16.80;;;9.65;;
52284;SDS011;38238;53.304;6.606;2022-11-25T17:39:17;16.17;;;8.00;;
52284;SDS011;38238;53.304;6.606;2022-11-25T17:41:47;18.30;;;8.80;;
52284;SDS011;38238;53.304;6.606;2022-11-25T17:44:25;17.20;;;10.05;;
52284;SDS011;38238;53.304;6.606;2022-11-25T17:46:53;18.52;;;11.48;;
52284;SDS011;38238;53.304;6.606;2022-11-25T17:49:20;14.77;;;9.80;;
52284;SDS011;38238;53.304;6.606;2022-11-25T17:51:46;18.65;;;10.45;;
52284;SDS011;38238;53.304;6.606;2022-11-25T17:54:12;14.93;;;10.07;;